createdAt,value
2018-03-25T00:00:04.620Z,44.19
2018-03-25T00:01:04.776Z,41.99
2018-03-25T00:02:04.920Z,43.21
2018-03-25T00:03:05.068Z,44.68
2018-03-25T00:04:05.222Z,44.19
2018-03-25T00:05:05.372Z,44.68
2018-03-25T00:06:05.523Z,44.92
2018-03-25T00:07:05.677Z,47.36
2018-03-25T00:08:05.821Z,53.71
2018-03-25T00:09:05.969Z,63.23
2018-03-25T00:10:06.365Z,48.10
2018-03-25T00:11:06.269Z,43.21
2018-03-25T00:12:06.419Z,44.43
2018-03-25T00:13:06.583Z,45.90
2018-03-25T00:14:06.718Z,69.82
2018-03-25T00:15:06.868Z,46.14
2018-03-25T00:16:07.023Z,45.65
2018-03-25T00:17:07.170Z,44.68
2018-03-25T00:18:07.319Z,45.65
2018-03-25T00:19:07.469Z,54.93
2018-03-25T00:20:07.616Z,47.61
2018-03-25T00:21:07.776Z,47.12
2018-03-25T00:22:07.928Z,45.41
2018-03-25T00:23:08.082Z,42.72
2018-03-25T00:24:08.243Z,43.70
2018-03-25T00:26:08.523Z,45.90
2018-03-25T00:27:08.672Z,45.41
2018-03-25T00:28:08.824Z,46.39
2018-03-25T00:29:08.968Z,45.17
2018-03-25T00:30:09.121Z,44.19
2018-03-25T00:31:09.279Z,44.19
2018-03-25T00:32:09.420Z,44.92
2018-03-25T00:33:09.597Z,43.21
2018-03-25T00:34:09.738Z,43.21
2018-03-25T00:35:09.909Z,48.83
2018-03-25T00:36:10.051Z,45.41
2018-03-25T00:37:10.205Z,44.43
2018-03-25T00:38:10.350Z,42.97
2018-03-25T00:39:10.494Z,44.68
2018-03-25T00:40:10.649Z,43.95
2018-03-25T00:41:10.804Z,41.50
2018-03-25T00:42:10.944Z,44.68
2018-03-25T00:43:11.100Z,44.92
2018-03-25T00:44:11.243Z,46.63
2018-03-25T00:45:11.390Z,41.99
2018-03-25T00:46:11.538Z,41.75
2018-03-25T00:47:11.691Z,41.75
2018-03-25T00:48:11.836Z,42.97
2018-03-25T00:49:11.993Z,45.65
2018-03-25T00:50:12.384Z,44.43
2018-03-25T00:51:12.308Z,48.34
2018-03-25T00:52:12.454Z,44.43
2018-03-25T00:53:12.604Z,42.24
2018-03-25T00:54:12.745Z,42.72
2018-03-25T00:55:12.894Z,42.72
2018-03-25T00:56:13.045Z,47.85
2018-03-25T00:57:13.192Z,42.72
2018-03-25T00:58:13.344Z,50.05
2018-03-25T00:59:13.506Z,44.92
2018-03-25T01:00:13.639Z,45.90
2018-03-25T01:01:13.787Z,43.95
2018-03-25T01:03:14.080Z,43.70
2018-03-25T01:04:14.228Z,43.70
2018-03-25T01:06:14.524Z,66.65
2018-03-25T01:07:14.671Z,65.19
2018-03-25T01:08:14.838Z,48.10
2018-03-25T01:09:14.975Z,43.21
2018-03-25T01:10:15.110Z,43.46
2018-03-25T01:11:15.263Z,47.12
2018-03-25T01:12:15.411Z,43.95
2018-03-25T01:13:15.565Z,42.97
2018-03-25T01:14:15.712Z,42.97
2018-03-25T01:15:15.861Z,43.21
2018-03-25T01:16:16.008Z,45.41
2018-03-25T01:17:16.158Z,44.19
2018-03-25T01:18:16.309Z,44.19
2018-03-25T01:19:16.451Z,45.65
2018-03-25T01:20:16.599Z,44.68
2018-03-25T01:21:16.743Z,45.17
2018-03-25T01:22:16.902Z,45.41
2018-03-25T01:23:17.034Z,43.95
2018-03-25T01:24:17.175Z,50.05
2018-03-25T01:25:17.322Z,42.24
2018-03-25T01:26:17.467Z,43.46
2018-03-25T01:27:17.620Z,57.86
2018-03-25T01:28:17.755Z,44.68
2018-03-25T01:29:17.906Z,44.19
2018-03-25T01:30:18.052Z,64.21
2018-03-25T01:31:18.202Z,46.88
2018-03-25T01:32:18.331Z,44.43
2018-03-25T01:33:18.499Z,48.10
2018-03-25T01:34:18.645Z,42.24
2018-03-25T01:35:18.793Z,43.21
2018-03-25T01:36:18.935Z,44.19
2018-03-25T01:37:19.093Z,44.19
2018-03-25T01:38:19.237Z,44.19
2018-03-25T01:39:19.383Z,44.19
2018-03-25T01:40:19.529Z,43.95
2018-03-25T01:41:19.687Z,45.41
2018-03-25T01:42:19.847Z,42.72
2018-03-25T01:43:19.977Z,46.39
2018-03-25T01:44:20.130Z,44.43
2018-03-25T01:45:20.276Z,46.14
2018-03-25T01:46:20.429Z,43.70
2018-03-25T01:47:20.569Z,43.46
2018-03-25T01:48:20.713Z,45.90
2018-03-25T01:49:20.863Z,43.95
2018-03-25T01:50:21.010Z,45.90
2018-03-25T01:51:21.157Z,43.21
2018-03-25T01:52:21.306Z,43.95
2018-03-25T01:53:21.456Z,44.43
2018-03-25T01:54:21.614Z,45.41
2018-03-25T01:55:21.753Z,43.70
2018-03-25T01:56:21.899Z,45.17
2018-03-25T01:57:22.408Z,45.17
2018-03-25T01:58:22.195Z,43.70
2018-03-25T01:59:22.341Z,44.92
2018-03-25T02:00:22.497Z,43.95
2018-03-25T02:01:22.640Z,47.12
2018-03-25T02:02:22.787Z,45.17
2018-03-25T02:03:22.932Z,46.14
2018-03-25T02:04:23.083Z,46.63
2018-03-25T02:05:23.231Z,42.72
2018-03-25T02:06:23.372Z,45.17
2018-03-25T02:07:23.525Z,43.21
2018-03-25T02:08:23.669Z,42.48
2018-03-25T02:09:23.821Z,42.24
2018-03-25T02:10:23.964Z,45.41
2018-03-25T02:11:24.109Z,43.95
2018-03-25T02:13:24.401Z,51.76
2018-03-25T02:14:24.545Z,53.47
2018-03-25T02:15:24.695Z,48.83
2018-03-25T02:16:24.840Z,58.35
2018-03-25T02:17:24.989Z,44.19
2018-03-25T02:18:25.145Z,45.41
2018-03-25T02:19:25.298Z,49.32
2018-03-25T02:20:25.436Z,49.56
2018-03-25T02:21:25.582Z,48.83
2018-03-25T02:22:25.731Z,43.21
2018-03-25T02:23:25.875Z,44.68
2018-03-25T02:24:26.041Z,43.70
2018-03-25T02:25:26.167Z,45.17
2018-03-25T02:26:26.312Z,52.00
2018-03-25T02:27:26.456Z,49.32
2018-03-25T02:28:26.604Z,44.68
2018-03-25T02:29:26.757Z,43.95
2018-03-25T02:30:26.894Z,43.21
2018-03-25T02:31:27.043Z,44.68
2018-03-25T02:32:27.197Z,46.88
2018-03-25T02:33:27.342Z,44.43
2018-03-25T02:34:27.489Z,44.19
2018-03-25T02:35:27.629Z,45.17
2018-03-25T02:36:27.776Z,45.17
2018-03-25T02:37:27.923Z,44.68
2018-03-25T02:38:28.073Z,45.65
2018-03-25T02:39:28.248Z,44.92
2018-03-25T02:40:28.378Z,47.12
2018-03-25T02:41:28.519Z,49.07
2018-03-25T02:42:28.665Z,45.41
2018-03-25T02:43:28.812Z,48.83
2018-03-25T02:44:28.957Z,43.21
2018-03-25T02:45:29.109Z,46.14
2018-03-25T02:46:29.259Z,41.99
2018-03-25T02:47:29.401Z,45.41
2018-03-25T02:48:29.549Z,58.11
2018-03-25T02:49:29.707Z,45.90
2018-03-25T02:50:29.846Z,45.41
2018-03-25T02:51:29.998Z,49.07
2018-03-25T02:52:30.140Z,44.68
2018-03-25T02:53:30.291Z,44.92
2018-03-25T02:54:30.428Z,44.43
2018-03-25T02:55:30.569Z,50.78
2018-03-25T02:56:30.716Z,48.34
2018-03-25T02:57:30.861Z,42.24
2018-03-25T02:58:31.008Z,42.97
2018-03-25T02:59:31.159Z,41.50
2018-03-25T03:00:31.302Z,45.90
2018-03-25T03:01:31.447Z,43.21
2018-03-25T03:02:31.599Z,44.19
2018-03-25T03:03:31.743Z,43.70
2018-03-25T03:04:31.891Z,44.92
2018-03-25T03:05:32.041Z,47.61
2018-03-25T03:06:32.188Z,43.95
2018-03-25T03:07:32.335Z,46.88
2018-03-25T03:08:32.478Z,46.39
2018-03-25T03:09:32.629Z,43.70
2018-03-25T03:10:32.780Z,42.72
2018-03-25T03:11:32.924Z,43.95
2018-03-25T03:12:33.084Z,45.90
2018-03-25T03:13:33.225Z,46.88
2018-03-25T03:14:33.374Z,43.21
2018-03-25T03:15:33.521Z,42.48
2018-03-25T03:16:33.678Z,45.41
2018-03-25T03:17:33.815Z,44.92
2018-03-25T03:18:33.965Z,48.10
2018-03-25T03:19:34.350Z,45.17
2018-03-25T03:20:34.258Z,42.97
2018-03-25T03:21:34.410Z,41.50
2018-03-25T03:22:34.560Z,43.70
2018-03-25T03:23:34.700Z,43.70
2018-03-25T03:24:34.851Z,45.90
2018-03-25T03:25:34.995Z,44.68
2018-03-25T03:26:35.155Z,41.75
2018-03-25T03:27:35.293Z,43.21
2018-03-25T03:28:35.436Z,43.21
2018-03-25T03:29:35.591Z,45.17
2018-03-25T03:30:35.735Z,44.68
2018-03-25T03:31:35.889Z,41.50
2018-03-25T03:32:36.030Z,45.65
2018-03-25T03:33:36.179Z,43.95
2018-03-25T03:34:36.332Z,48.58
2018-03-25T03:35:36.475Z,42.48
2018-03-25T03:36:36.623Z,44.19
2018-03-25T03:37:36.774Z,43.95
2018-03-25T03:38:36.920Z,46.88
2018-03-25T03:39:37.068Z,45.90
2018-03-25T03:40:37.217Z,44.43
2018-03-25T03:41:37.364Z,45.17
2018-03-25T03:42:37.512Z,43.21
2018-03-25T03:43:37.657Z,43.70
2018-03-25T03:44:37.804Z,47.12
2018-03-25T03:45:37.952Z,46.14
2018-03-25T03:46:38.103Z,43.95
2018-03-25T03:47:38.250Z,45.65
2018-03-25T03:48:38.400Z,43.70
2018-03-25T03:49:38.544Z,43.46
2018-03-25T03:50:38.711Z,43.46
2018-03-25T03:51:38.855Z,46.88
2018-03-25T03:52:39.004Z,44.43
2018-03-25T03:53:39.152Z,45.17
2018-03-25T03:54:39.300Z,43.95
2018-03-25T03:55:39.449Z,45.17
2018-03-25T03:56:39.594Z,45.41
2018-03-25T03:57:39.737Z,44.92
2018-03-25T03:58:39.885Z,63.23
2018-03-25T03:59:40.037Z,43.95
2018-03-25T04:00:40.184Z,54.93
2018-03-25T04:01:40.330Z,46.39
2018-03-25T04:02:40.477Z,47.61
2018-03-25T04:03:40.630Z,59.08
2018-03-25T04:04:40.779Z,52.98
2018-03-25T04:05:40.929Z,45.65
2018-03-25T04:06:41.072Z,45.41
2018-03-25T04:07:41.462Z,51.76
2018-03-25T04:08:41.367Z,45.17
2018-03-25T04:09:41.513Z,45.17
2018-03-25T04:10:41.671Z,44.43
2018-03-25T04:11:41.811Z,46.63
2018-03-25T04:12:41.958Z,56.15
2018-03-25T04:13:42.104Z,54.93
2018-03-25T04:14:42.254Z,46.63
2018-03-25T04:15:42.395Z,52.73
2018-03-25T04:16:42.545Z,45.41
2018-03-25T04:17:42.693Z,45.17
2018-03-25T04:18:42.837Z,44.43
2018-03-25T04:19:42.987Z,49.32
2018-03-25T04:20:43.133Z,44.92
2018-03-25T04:21:43.278Z,45.65
2018-03-25T04:22:43.423Z,45.17
2018-03-25T04:23:43.580Z,45.17
2018-03-25T04:24:43.723Z,46.88
2018-03-25T04:25:43.869Z,45.17
2018-03-25T04:26:44.021Z,45.41
2018-03-25T04:27:44.161Z,50.78
2018-03-25T04:28:44.311Z,49.80
2018-03-25T04:29:44.464Z,52.49
2018-03-25T04:30:44.607Z,53.47
2018-03-25T04:31:44.752Z,57.13
2018-03-25T04:32:44.900Z,49.07
2018-03-25T04:33:45.047Z,54.93
2018-03-25T04:34:45.195Z,49.07
2018-03-25T04:35:45.341Z,46.63
2018-03-25T04:36:45.538Z,45.17
2018-03-25T04:37:45.643Z,44.19
2018-03-25T04:38:45.783Z,55.42
2018-03-25T04:39:45.933Z,60.06
2018-03-25T04:40:46.076Z,58.59
2018-03-25T04:41:46.234Z,51.51
2018-03-25T04:42:46.373Z,58.59
2018-03-25T04:43:46.517Z,62.99
2018-03-25T04:44:46.664Z,58.35
2018-03-25T04:45:46.810Z,60.30
2018-03-25T04:46:46.952Z,61.28
2018-03-25T04:47:47.098Z,51.76
2018-03-25T04:48:47.244Z,61.77
2018-03-25T04:49:47.390Z,55.42
2018-03-25T04:50:47.536Z,48.34
2018-03-25T04:51:47.685Z,64.21
2018-03-25T04:52:47.834Z,52.98
2018-03-25T04:53:48.243Z,52.73
2018-03-25T04:54:48.128Z,49.32
2018-03-25T04:55:48.279Z,56.40
2018-03-25T04:56:48.428Z,49.56
2018-03-25T04:57:48.570Z,47.61
2018-03-25T04:58:48.713Z,53.22
2018-03-25T04:59:48.862Z,49.56
2018-03-25T05:00:49.013Z,54.20
2018-03-25T05:01:49.409Z,52.73
2018-03-25T05:02:49.300Z,43.70
2018-03-25T05:03:49.449Z,44.19
2018-03-25T05:04:49.600Z,43.21
2018-03-25T05:05:49.739Z,48.10
2018-03-25T05:06:49.886Z,45.17
2018-03-25T05:07:50.037Z,47.61
2018-03-25T05:08:50.173Z,47.12
2018-03-25T05:09:50.325Z,50.78
2018-03-25T05:10:50.470Z,45.17
2018-03-25T05:11:50.619Z,47.61
2018-03-25T05:12:50.767Z,44.68
2018-03-25T05:13:50.912Z,46.14
2018-03-25T05:14:51.066Z,55.18
2018-03-25T05:15:51.209Z,58.59
2018-03-25T05:16:51.352Z,44.68
2018-03-25T05:17:51.502Z,58.84
2018-03-25T05:18:51.679Z,45.65
2018-03-25T05:19:51.793Z,48.10
2018-03-25T05:20:51.943Z,56.88
2018-03-25T05:21:52.092Z,58.35
2018-03-25T05:22:52.238Z,61.04
2018-03-25T05:23:52.377Z,50.29
2018-03-25T05:24:52.523Z,50.29
2018-03-25T05:25:52.667Z,46.39
2018-03-25T05:26:52.816Z,48.10
2018-03-25T05:27:52.962Z,47.61
2018-03-25T05:28:53.121Z,45.65
2018-03-25T05:29:53.263Z,46.88
2018-03-25T05:30:53.410Z,53.96
2018-03-25T05:31:53.554Z,47.61
2018-03-25T05:32:53.703Z,45.17
2018-03-25T05:33:53.853Z,44.92
2018-03-25T05:34:53.996Z,45.41
2018-03-25T05:35:54.133Z,47.61
2018-03-25T05:36:54.275Z,55.91
2018-03-25T05:37:54.423Z,47.36
2018-03-25T05:38:54.571Z,60.30
2018-03-25T05:39:54.716Z,48.83
2018-03-25T05:40:54.867Z,46.88
2018-03-25T05:41:55.009Z,58.59
2018-03-25T05:42:55.162Z,49.32
2018-03-25T05:43:55.301Z,50.54
2018-03-25T05:44:55.452Z,46.39
2018-03-25T05:45:55.602Z,54.69
2018-03-25T05:46:55.748Z,46.88
2018-03-25T05:47:55.896Z,45.17
2018-03-25T05:48:56.060Z,62.74
2018-03-25T05:49:56.193Z,71.78
2018-03-25T05:50:56.342Z,48.58
2018-03-25T05:51:56.489Z,43.95
2018-03-25T05:52:56.635Z,50.78
2018-03-25T05:53:56.815Z,56.64
2018-03-25T05:54:56.933Z,49.07
2018-03-25T05:55:57.080Z,46.14
2018-03-25T05:56:57.231Z,51.76
2018-03-25T05:57:57.374Z,48.10
2018-03-25T05:58:57.524Z,44.68
2018-03-25T05:59:57.675Z,54.69
2018-03-25T06:00:57.821Z,53.47
2018-03-25T06:01:57.970Z,48.83
2018-03-25T06:02:58.114Z,44.43
2018-03-25T06:03:58.260Z,58.59
2018-03-25T06:04:58.406Z,53.47
2018-03-25T06:05:58.554Z,49.56
2018-03-25T06:06:58.703Z,47.12
2018-03-25T06:07:58.856Z,48.83
2018-03-25T06:08:58.993Z,43.46
2018-03-25T06:09:59.141Z,45.65
2018-03-25T06:10:59.293Z,43.21
2018-03-25T06:11:59.441Z,47.12
2018-03-25T06:12:59.589Z,50.29
2018-03-25T06:13:59.737Z,42.72
2018-03-25T06:14:59.893Z,45.17
2018-03-25T06:16:00.137Z,53.71
2018-03-25T06:17:00.181Z,57.37
2018-03-25T06:18:00.330Z,47.85
2018-03-25T06:19:00.485Z,47.85
2018-03-25T06:20:00.633Z,51.76
2018-03-25T06:21:00.776Z,54.93
2018-03-25T06:22:00.926Z,45.65
2018-03-25T06:23:01.054Z,47.36
2018-03-25T06:24:01.204Z,55.91
2018-03-25T06:25:01.351Z,50.78
2018-03-25T06:26:01.505Z,59.33
2018-03-25T06:27:01.654Z,47.12
2018-03-25T06:28:01.805Z,48.10
2018-03-25T06:29:02.015Z,58.84
2018-03-25T06:30:02.096Z,55.18
2018-03-25T06:31:02.245Z,54.44
2018-03-25T06:32:02.426Z,49.32
2018-03-25T06:33:02.542Z,56.88
2018-03-25T06:34:02.685Z,57.37
2018-03-25T06:35:02.831Z,49.07
2018-03-25T06:36:02.980Z,47.85
2018-03-25T06:37:03.122Z,46.63
2018-03-25T06:38:03.331Z,57.37
2018-03-25T06:39:03.422Z,44.43
2018-03-25T06:40:03.569Z,58.84
2018-03-25T06:41:03.716Z,49.32
2018-03-25T06:42:03.866Z,57.37
2018-03-25T06:43:04.015Z,46.39
2018-03-25T06:44:04.165Z,45.17
2018-03-25T06:45:04.318Z,54.69
2018-03-25T06:46:04.462Z,55.66
2018-03-25T06:47:04.610Z,44.68
2018-03-25T06:48:04.765Z,44.43
2018-03-25T06:49:04.916Z,47.36
2018-03-25T06:50:05.067Z,68.12
2018-03-25T06:51:05.211Z,51.51
2018-03-25T06:52:05.361Z,76.90
2018-03-25T06:53:05.517Z,59.57
2018-03-25T06:54:05.652Z,43.46
2018-03-25T06:55:05.801Z,46.88
2018-03-25T06:56:06.198Z,45.65
2018-03-25T06:57:06.099Z,45.17
2018-03-25T06:58:06.251Z,42.48
2018-03-25T06:59:06.405Z,64.21
2018-03-25T07:00:06.555Z,67.38
2018-03-25T07:01:06.702Z,54.93
2018-03-25T07:02:06.857Z,50.05
2018-03-25T07:03:07.006Z,49.80
2018-03-25T07:04:07.157Z,53.47
2018-03-25T07:05:07.307Z,50.78
2018-03-25T07:06:07.456Z,48.10
2018-03-25T07:07:07.604Z,56.64
2018-03-25T07:08:07.755Z,45.90
2018-03-25T07:09:07.905Z,45.65
2018-03-25T07:10:08.053Z,48.34
2018-03-25T07:11:08.248Z,43.70
2018-03-25T07:12:08.344Z,64.21
2018-03-25T07:13:08.487Z,46.63
2018-03-25T07:14:08.635Z,56.88
2018-03-25T07:15:08.787Z,54.44
2018-03-25T07:16:08.950Z,61.28
2018-03-25T07:17:09.084Z,60.30
2018-03-25T07:18:09.238Z,46.14
2018-03-25T07:19:09.387Z,46.14
2018-03-25T07:20:09.541Z,43.95
2018-03-25T07:21:09.689Z,45.65
2018-03-25T07:22:09.839Z,43.70
2018-03-25T07:23:09.991Z,55.18
2018-03-25T07:24:10.142Z,57.86
2018-03-25T07:25:10.293Z,46.14
2018-03-25T07:26:10.441Z,58.84
2018-03-25T07:27:10.595Z,48.34
2018-03-25T07:28:10.746Z,50.54
2018-03-25T07:29:10.903Z,59.81
2018-03-25T07:30:11.072Z,55.18
2018-03-25T07:31:11.202Z,54.69
2018-03-25T07:32:11.352Z,54.69
2018-03-25T07:33:11.506Z,65.19
2018-03-25T07:34:11.655Z,66.16
2018-03-25T07:35:11.810Z,67.87
2018-03-25T07:36:11.963Z,51.03
2018-03-25T07:37:12.117Z,51.27
2018-03-25T07:38:12.267Z,54.93
2018-03-25T07:39:12.424Z,48.10
2018-03-25T07:40:12.583Z,53.22
2018-03-25T07:41:12.735Z,57.13
2018-03-25T07:42:12.882Z,61.04
2018-03-25T07:43:13.038Z,57.13
2018-03-25T07:44:13.188Z,47.61
2018-03-25T07:45:13.342Z,53.22
2018-03-25T07:46:13.496Z,48.83
2018-03-25T07:47:13.654Z,56.40
2018-03-25T07:48:13.805Z,50.05
2018-03-25T07:49:13.961Z,59.08
2018-03-25T07:50:14.109Z,60.06
2018-03-25T07:51:14.262Z,71.04
2018-03-25T07:52:14.418Z,74.46
2018-03-25T07:53:14.594Z,74.71
2018-03-25T07:54:14.760Z,75.44
2018-03-25T07:55:14.920Z,74.71
2018-03-25T07:56:15.072Z,74.22
2018-03-25T07:57:15.222Z,74.71
2018-03-25T07:58:15.380Z,76.66
2018-03-25T07:59:15.534Z,74.95
2018-03-25T08:00:15.691Z,74.71
2018-03-25T08:01:15.847Z,73.24
2018-03-25T08:02:16.001Z,66.41
2018-03-25T08:03:16.154Z,64.21
2018-03-25T08:04:16.549Z,54.44
2018-03-25T08:05:16.464Z,58.84
2018-03-25T08:06:16.623Z,57.37
2018-03-25T08:07:16.782Z,54.93
2018-03-25T08:08:16.918Z,54.69
2018-03-25T08:09:17.079Z,44.92
2018-03-25T08:10:17.230Z,49.80
2018-03-25T08:11:17.384Z,54.20
2018-03-25T08:12:17.536Z,59.33
2018-03-25T08:13:17.692Z,61.77
2018-03-25T08:14:17.847Z,52.73
2018-03-25T08:15:17.995Z,52.49
2018-03-25T08:16:18.177Z,61.52
2018-03-25T08:17:18.317Z,57.62
2018-03-25T08:18:18.473Z,45.41
2018-03-25T08:19:18.627Z,43.70
2018-03-25T08:20:18.784Z,62.74
2018-03-25T08:21:18.929Z,59.33
2018-03-25T08:22:19.085Z,46.14
2018-03-25T08:23:19.242Z,47.12
2018-03-25T08:24:19.394Z,55.91
2018-03-25T08:25:19.553Z,55.66
2018-03-25T08:26:19.706Z,55.91
2018-03-25T08:27:19.860Z,60.06
2018-03-25T08:28:20.014Z,55.66
2018-03-25T08:29:20.167Z,52.00
2018-03-25T08:30:20.321Z,53.71
2018-03-25T08:31:20.485Z,48.83
2018-03-25T08:32:20.648Z,49.07
2018-03-25T08:33:20.801Z,64.45
2018-03-25T08:34:20.951Z,57.86
2018-03-25T08:35:21.113Z,64.21
2018-03-25T08:36:21.265Z,42.97
2018-03-25T08:37:21.416Z,53.22
2018-03-25T08:38:21.573Z,56.15
2018-03-25T08:39:21.728Z,70.07
2018-03-25T08:40:21.881Z,61.28
2018-03-25T08:42:22.184Z,72.75
2018-03-25T08:43:22.341Z,77.15
2018-03-25T08:44:22.495Z,71.29
2018-03-25T08:45:22.649Z,56.40
2018-03-25T08:46:22.803Z,59.08
2018-03-25T08:47:22.957Z,59.57
2018-03-25T08:48:23.112Z,64.21
2018-03-25T08:49:23.271Z,44.68
2018-03-25T08:50:23.425Z,53.47
2018-03-25T08:51:23.584Z,52.00
2018-03-25T08:52:23.736Z,45.41
2018-03-25T08:53:23.884Z,57.86
2018-03-25T08:54:24.038Z,51.76
2018-03-25T08:55:24.191Z,52.73
2018-03-25T08:56:24.348Z,57.62
2018-03-25T08:57:24.500Z,55.18
2018-03-25T08:58:24.655Z,57.62
2018-03-25T08:59:24.810Z,57.62
2018-03-25T09:00:25.028Z,74.22
2018-03-25T09:01:25.125Z,57.86
2018-03-25T09:02:25.279Z,56.64
2018-03-25T09:03:25.436Z,52.00
2018-03-25T09:04:25.613Z,45.90
2018-03-25T09:05:25.749Z,54.93
2018-03-25T09:06:25.908Z,62.74
2018-03-25T09:07:26.058Z,62.74
2018-03-25T09:08:26.213Z,51.27
2018-03-25T09:09:26.619Z,52.49
2018-03-25T09:10:26.521Z,56.88
2018-03-25T09:11:26.673Z,59.33
2018-03-25T09:12:26.831Z,59.57
2018-03-25T09:13:26.986Z,58.59
2018-03-25T09:14:27.126Z,53.47
2018-03-25T09:15:27.281Z,60.30
2018-03-25T09:16:27.436Z,62.50
2018-03-25T09:17:27.602Z,65.67
2018-03-25T09:18:27.748Z,74.95
2018-03-25T09:19:27.906Z,60.79
2018-03-25T09:20:28.063Z,50.05
2018-03-25T09:21:28.215Z,58.35
2018-03-25T09:22:28.370Z,58.84
2018-03-25T09:23:28.532Z,66.16
2018-03-25T09:24:28.680Z,60.79
2018-03-25T09:25:28.844Z,59.81
2018-03-25T09:26:29.002Z,53.71
2018-03-25T09:27:29.147Z,54.93
2018-03-25T09:28:29.305Z,53.22
2018-03-25T09:29:29.459Z,62.99
2018-03-25T09:30:29.621Z,53.47
2018-03-25T09:31:30.004Z,54.20
2018-03-25T09:32:29.924Z,60.30
2018-03-25T09:33:30.085Z,50.05
2018-03-25T09:35:30.388Z,54.44
2018-03-25T09:36:30.538Z,58.84
2018-03-25T09:37:30.691Z,57.37
2018-03-25T09:38:30.845Z,51.51
2018-03-25T09:39:31.003Z,66.41
2018-03-25T09:40:31.159Z,63.96
2018-03-25T09:41:31.309Z,49.07
2018-03-25T09:42:31.470Z,58.59
2018-03-25T09:43:31.638Z,54.69
2018-03-25T09:44:31.788Z,54.44
2018-03-25T09:45:31.936Z,64.70
2018-03-25T09:46:32.092Z,58.35
2018-03-25T09:47:32.253Z,53.71
2018-03-25T09:48:32.399Z,47.61
2018-03-25T09:49:32.553Z,54.44
2018-03-25T09:50:32.706Z,59.33
2018-03-25T09:51:32.866Z,53.47
2018-03-25T09:52:33.020Z,53.47
2018-03-25T09:53:33.185Z,46.14
2018-03-25T09:54:33.337Z,50.54
2018-03-25T09:55:33.498Z,59.08
2018-03-25T09:56:33.897Z,63.72
2018-03-25T09:57:33.808Z,56.15
2018-03-25T09:58:34.031Z,48.83
2018-03-25T10:00:34.293Z,58.35
2018-03-25T10:01:34.429Z,51.03
2018-03-25T10:02:34.578Z,62.99
2018-03-25T10:03:34.732Z,62.74
2018-03-25T10:04:34.912Z,58.84
2018-03-25T10:05:35.044Z,47.61
2018-03-25T10:06:35.190Z,54.69
2018-03-25T10:07:35.358Z,44.92
2018-03-25T10:08:35.497Z,52.98
2018-03-25T10:09:35.657Z,65.92
2018-03-25T10:10:35.813Z,66.89
2018-03-25T10:11:35.972Z,55.42
2018-03-25T10:12:36.121Z,53.47
2018-03-25T10:13:36.271Z,43.95
2018-03-25T10:14:36.432Z,49.32
2018-03-25T10:15:36.598Z,54.69
2018-03-25T10:16:36.738Z,52.25
2018-03-25T10:17:36.888Z,43.70
2018-03-25T10:18:37.046Z,66.16
2018-03-25T10:19:37.202Z,55.91
2018-03-25T10:20:37.356Z,62.74
2018-03-25T10:21:37.513Z,72.02
2018-03-25T10:22:37.699Z,80.81
2018-03-25T10:23:37.818Z,53.47
2018-03-25T10:24:37.976Z,49.56
2018-03-25T10:25:38.145Z,45.41
2018-03-25T10:26:38.291Z,60.79
2018-03-25T10:27:38.442Z,56.64
2018-03-25T10:28:38.590Z,73.73
2018-03-25T10:29:38.760Z,64.94
2018-03-25T10:30:38.911Z,60.06
2018-03-25T10:31:39.068Z,43.95
2018-03-25T10:32:39.221Z,45.90
2018-03-25T10:33:39.376Z,58.35
2018-03-25T10:34:39.535Z,53.71
2018-03-25T10:35:39.691Z,52.73
2018-03-25T10:36:39.847Z,61.28
2018-03-25T10:37:40.010Z,54.44
2018-03-25T10:38:40.162Z,49.56
2018-03-25T10:39:40.314Z,47.85
2018-03-25T10:40:40.476Z,47.61
2018-03-25T10:41:40.634Z,46.63
2018-03-25T10:42:40.786Z,56.40
2018-03-25T10:43:40.938Z,56.64
2018-03-25T10:44:41.104Z,70.56
2018-03-25T10:45:41.253Z,56.40
2018-03-25T10:46:41.414Z,55.66
2018-03-25T10:47:41.559Z,52.25
2018-03-25T10:48:41.722Z,63.23
2018-03-25T10:49:42.117Z,53.22
2018-03-25T10:50:42.030Z,52.98
2018-03-25T10:51:42.192Z,58.11
2018-03-25T10:52:42.348Z,62.26
2018-03-25T10:53:42.502Z,47.61
2018-03-25T10:54:42.653Z,45.65
2018-03-25T10:55:42.813Z,54.44
2018-03-25T10:56:42.961Z,47.85
2018-03-25T10:57:43.116Z,56.40
2018-03-25T10:58:43.275Z,56.15
2018-03-25T10:59:43.429Z,65.92
2018-03-25T11:00:43.892Z,54.93
2018-03-25T11:01:43.737Z,69.09
2018-03-25T11:02:43.891Z,55.66
2018-03-25T11:03:44.059Z,53.71
2018-03-25T11:04:44.270Z,50.29
2018-03-25T11:05:44.357Z,49.56
2018-03-25T11:06:44.514Z,61.28
2018-03-25T11:07:44.674Z,55.91
2018-03-25T11:08:44.834Z,54.20
2018-03-25T11:09:44.989Z,55.42
2018-03-25T11:10:45.140Z,55.91
2018-03-25T11:11:45.353Z,48.10
2018-03-25T11:12:45.455Z,59.57
2018-03-25T11:13:45.608Z,48.10
2018-03-25T11:14:45.766Z,56.15
2018-03-25T11:15:45.922Z,51.27
2018-03-25T11:16:46.078Z,41.99
2018-03-25T11:17:46.234Z,54.69
2018-03-25T11:18:46.381Z,52.98
2018-03-25T11:19:46.537Z,48.10
2018-03-25T11:20:46.692Z,51.03
2018-03-25T11:21:46.853Z,54.93
2018-03-25T11:22:47.014Z,57.37
2018-03-25T11:23:47.159Z,55.91
2018-03-25T11:24:47.315Z,56.40
2018-03-25T11:25:47.474Z,55.42
2018-03-25T11:26:47.633Z,56.88
2018-03-25T11:27:47.791Z,59.08
2018-03-25T11:28:47.941Z,54.69
2018-03-25T11:29:48.099Z,61.52
2018-03-25T11:30:48.251Z,56.40
2018-03-25T11:31:48.405Z,55.42
2018-03-25T11:32:48.560Z,55.91
2018-03-25T11:33:48.719Z,68.85
2018-03-25T11:34:48.880Z,59.57
2018-03-25T11:35:49.037Z,59.81
2018-03-25T11:36:49.191Z,61.28
2018-03-25T11:37:49.349Z,61.52
2018-03-25T11:38:49.514Z,71.78
2018-03-25T11:39:49.668Z,68.36
2018-03-25T11:40:49.820Z,57.13
2018-03-25T11:41:49.974Z,57.86
2018-03-25T11:42:50.137Z,56.40
2018-03-25T11:43:50.282Z,56.40
2018-03-25T11:44:50.440Z,53.47
2018-03-25T11:45:50.592Z,55.66
2018-03-25T11:46:50.754Z,57.13
2018-03-25T11:47:50.920Z,60.79
2018-03-25T11:48:51.066Z,55.66
2018-03-25T11:49:51.214Z,56.40
2018-03-25T11:50:51.368Z,57.13
2018-03-25T11:51:51.536Z,56.15
2018-03-25T11:52:51.693Z,58.11
2018-03-25T11:53:51.845Z,61.77
2018-03-25T11:54:51.998Z,52.98
2018-03-25T11:55:52.158Z,53.96
2018-03-25T11:56:52.312Z,55.91
2018-03-25T11:57:52.470Z,55.66
2018-03-25T11:58:52.632Z,58.84
2018-03-25T11:59:52.778Z,60.79
2018-03-25T12:00:52.934Z,57.13
2018-03-25T12:01:53.093Z,56.15
2018-03-25T12:02:53.257Z,50.54
2018-03-25T12:03:53.404Z,56.15
2018-03-25T12:04:53.562Z,59.33
2018-03-25T12:05:53.716Z,66.16
2018-03-25T12:06:53.928Z,56.64
2018-03-25T12:07:54.452Z,48.83
2018-03-25T12:08:54.182Z,52.49
2018-03-25T12:09:54.349Z,51.03
2018-03-25T12:10:54.504Z,59.08
2018-03-25T12:11:54.653Z,63.96
2018-03-25T12:12:54.818Z,49.80
2018-03-25T12:13:54.968Z,54.20
2018-03-25T12:14:55.165Z,49.07
2018-03-25T12:15:55.277Z,54.69
2018-03-25T12:16:55.430Z,55.42
2018-03-25T12:17:55.585Z,52.73
2018-03-25T12:18:55.766Z,53.47
2018-03-25T12:19:55.892Z,56.40
2018-03-25T12:20:56.050Z,55.18
2018-03-25T12:21:56.206Z,49.32
2018-03-25T12:22:56.360Z,50.05
2018-03-25T12:23:56.530Z,63.23
2018-03-25T12:24:56.673Z,55.91
2018-03-25T12:25:56.832Z,57.62
2018-03-25T12:26:56.984Z,57.86
2018-03-25T12:27:57.139Z,53.22
2018-03-25T12:28:57.295Z,61.52
2018-03-25T12:29:57.460Z,60.55
2018-03-25T12:30:57.609Z,54.20
2018-03-25T12:31:57.764Z,52.73
2018-03-25T12:32:57.934Z,55.66
2018-03-25T12:33:58.077Z,59.81
2018-03-25T12:34:58.239Z,60.06
2018-03-25T12:35:58.402Z,56.64
2018-03-25T12:36:58.555Z,56.40
2018-03-25T12:37:58.709Z,65.43
2018-03-25T12:38:58.875Z,68.85
2018-03-25T12:39:59.027Z,61.28
2018-03-25T12:40:59.176Z,54.44
2018-03-25T12:41:59.333Z,56.88
2018-03-25T12:42:59.472Z,49.80
2018-03-25T12:43:59.625Z,51.51
2018-03-25T12:44:59.790Z,49.56
2018-03-25T12:45:59.938Z,56.64
2018-03-25T12:47:00.097Z,54.69
2018-03-25T12:48:00.248Z,47.85
2018-03-25T12:49:00.414Z,68.60
2018-03-25T12:50:00.565Z,54.93
2018-03-25T12:51:00.712Z,55.42
2018-03-25T12:52:00.871Z,56.15
2018-03-25T12:53:01.023Z,51.76
2018-03-25T12:54:01.181Z,52.00
2018-03-25T12:55:01.394Z,58.11
2018-03-25T12:56:01.489Z,48.58
2018-03-25T12:57:01.645Z,49.80
2018-03-25T12:58:01.803Z,66.41
2018-03-25T12:59:01.955Z,58.11
2018-03-25T13:00:02.111Z,59.08
2018-03-25T13:02:02.425Z,64.94